sensor_id;sensor_type;location;lat;lon;timestamp;P1;durP1;ratioP1;P2;durP2;ratioP2
4210;SDS011;2119;48.828;12.396;2023-03-01T00:00:18;23.58;;;14.27;;
4210;SDS011;2119;48.828;12.396;2023-03-01T00:05:19;21.67;;;14.33;;
4210;SDS011;2119;48.828;12.396;2023-03-01T00:10:20;23.47;;;15.63;;
4210;SDS011;2119;48.828;12.396;2023-03-01T00:15:21;22.93;;;14.70;;
4210;SDS011;2119;48.828;12.396;2023-03-01T00:20:21;27.93;;;15.37;;
4210;SDS011;2119;48.828;12.396;2023-03-01T00:25:23;22.70;;;13.80;;
4210;SDS011;2119;48.828;12.396;2023-03-01T00:30:24;26.40;;;15.10;;
4210;SDS011;2119;48.828;12.396;2023-03-01T00:35:24;25.73;;;14.67;;
4210;SDS011;2119;48.828;12.396;2023-03-01T00:40:29;24.35;;;15.35;;
4210;SDS011;2119;48.828;12.396;2023-03-01T00:45:29;26.50;;;15.00;;
4210;SDS011;2119;48.828;12.396;2023-03-01T00:50:30;23.80;;;14.07;;
4210;SDS011;2119;48.828;12.396;2023-03-01T00:55:32;24.60;;;13.87;;
4210;SDS011;2119;48.828;12.396;2023-03-01T01:00:33;26.00;;;15.07;;
4210;SDS011;2119;48.828;12.396;2023-03-01T01:05:34;22.93;;;13.70;;
4210;SDS011;2119;48.828;12.396;2023-03-01T01:10:35;24.23;;;15.23;;
4210;SDS011;2119;48.828;12.396;2023-03-01T01:15:36;26.70;;;14.70;;
4210;SDS011;2119;48.828;12.396;2023-03-01T01:20:39;22.98;;;14.63;;
4210;SDS011;2119;48.828;12.396;2023-03-01T01:25:40;22.07;;;13.60;;
4210;SDS011;2119;48.828;12.396;2023-03-01T01:30:40;21.13;;;14.07;;
4210;SDS011;2119;48.828;12.396;2023-03-01T01:35:44;24.50;;;14.17;;
4210;SDS011;2119;48.828;12.396;2023-03-01T01:40:46;21.77;;;13.90;;
4210;SDS011;2119;48.828;12.396;2023-03-01T01:45:46;22.83;;;12.00;;
4210;SDS011;2119;48.828;12.396;2023-03-01T01:50:47;19.17;;;11.93;;
4210;SDS011;2119;48.828;12.396;2023-03-01T01:55:51;25.23;;;14.30;;
4210;SDS011;2119;48.828;12.396;2023-03-01T02:00:53;23.43;;;13.47;;
4210;SDS011;2119;48.828;12.396;2023-03-01T02:06:00;24.23;;;14.80;;
4210;SDS011;2119;48.828;12.396;2023-03-01T02:11:03;22.37;;;13.60;;
4210;SDS011;2119;48.828;12.396;2023-03-01T02:16:09;19.70;;;11.93;;
4210;SDS011;2119;48.828;12.396;2023-03-01T02:26:47;20.13;;;12.17;;
4210;SDS011;2119;48.828;12.396;2023-03-01T02:31:48;21.17;;;13.47;;
4210;SDS011;2119;48.828;12.396;2023-03-01T02:36:51;24.27;;;13.10;;
4210;SDS011;2119;48.828;12.396;2023-03-01T02:41:53;24.33;;;15.00;;
4210;SDS011;2119;48.828;12.396;2023-03-01T02:47:01;22.87;;;12.90;;
4210;SDS011;2119;48.828;12.396;2023-03-01T02:57:21;22.50;;;13.23;;
4210;SDS011;2119;48.828;12.396;2023-03-01T03:02:26;24.90;;;14.80;;
4210;SDS011;2119;48.828;12.396;2023-03-01T03:07:40;24.57;;;14.63;;
4210;SDS011;2119;48.828;12.396;2023-03-01T03:17:51;23.57;;;13.93;;
4210;SDS011;2119;48.828;12.396;2023-03-01T03:23:00;25.43;;;14.67;;
4210;SDS011;2119;48.828;12.396;2023-03-01T03:28:03;24.67;;;14.43;;
4210;SDS011;2119;48.828;12.396;2023-03-01T03:33:11;25.37;;;14.87;;
4210;SDS011;2119;48.828;12.396;2023-03-01T03:38:12;27.50;;;14.30;;
4210;SDS011;2119;48.828;12.396;2023-03-01T03:48:41;23.60;;;14.40;;
4210;SDS011;2119;48.828;12.396;2023-03-01T03:53:43;26.40;;;14.20;;
4210;SDS011;2119;48.828;12.396;2023-03-01T03:58:44;26.73;;;13.93;;
4210;SDS011;2119;48.828;12.396;2023-03-01T04:03:53;28.23;;;14.90;;
4210;SDS011;2119;48.828;12.396;2023-03-01T04:08:59;23.47;;;13.90;;
4210;SDS011;2119;48.828;12.396;2023-03-01T04:14:04;24.30;;;14.70;;
4210;SDS011;2119;48.828;12.396;2023-03-01T04:19:04;30.77;;;15.63;;
4210;SDS011;2119;48.828;12.396;2023-03-01T04:24:06;25.27;;;13.57;;
4210;SDS011;2119;48.828;12.396;2023-03-01T04:29:22;24.13;;;14.07;;
4210;SDS011;2119;48.828;12.396;2023-03-01T04:34:25;25.30;;;14.67;;
4210;SDS011;2119;48.828;12.396;2023-03-01T04:39:29;26.40;;;15.40;;
4210;SDS011;2119;48.828;12.396;2023-03-01T04:44:30;22.07;;;13.50;;
4210;SDS011;2119;48.828;12.396;2023-03-01T04:49:30;22.50;;;12.50;;
4210;SDS011;2119;48.828;12.396;2023-03-01T04:54:31;22.50;;;12.37;;
4210;SDS011;2119;48.828;12.396;2023-03-01T04:59:32;27.40;;;15.00;;
4210;SDS011;2119;48.828;12.396;2023-03-01T05:04:37;28.48;;;16.67;;
4210;SDS011;2119;48.828;12.396;2023-03-01T05:09:37;25.40;;;14.80;;
4210;SDS011;2119;48.828;12.396;2023-03-01T05:14:40;22.40;;;13.87;;
4210;SDS011;2119;48.828;12.396;2023-03-01T05:19:42;25.40;;;15.93;;
4210;SDS011;2119;48.828;12.396;2023-03-01T05:24:43;23.93;;;13.30;;
4210;SDS011;2119;48.828;12.396;2023-03-01T05:29:54;27.30;;;14.97;;
4210;SDS011;2119;48.828;12.396;2023-03-01T05:34:55;33.77;;;17.30;;
4210;SDS011;2119;48.828;12.396;2023-03-01T05:39:56;34.17;;;19.27;;
4210;SDS011;2119;48.828;12.396;2023-03-01T05:50:21;29.57;;;16.10;;
4210;SDS011;2119;48.828;12.396;2023-03-01T05:55:23;29.77;;;15.60;;
4210;SDS011;2119;48.828;12.396;2023-03-01T06:00:29;29.17;;;16.07;;
4210;SDS011;2119;48.828;12.396;2023-03-01T06:05:32;30.47;;;16.90;;
4210;SDS011;2119;48.828;12.396;2023-03-01T06:10:32;35.93;;;20.10;;
4210;SDS011;2119;48.828;12.396;2023-03-01T06:15:32;38.07;;;21.40;;
4210;SDS011;2119;48.828;12.396;2023-03-01T06:20:33;42.28;;;22.60;;
4210;SDS011;2119;48.828;12.396;2023-03-01T06:25:33;41.03;;;20.98;;
4210;SDS011;2119;48.828;12.396;2023-03-01T06:35:38;39.67;;;20.80;;
4210;SDS011;2119;48.828;12.396;2023-03-01T06:40:43;39.63;;;20.53;;
4210;SDS011;2119;48.828;12.396;2023-03-01T06:45:43;37.50;;;20.47;;
4210;SDS011;2119;48.828;12.396;2023-03-01T06:50:43;41.10;;;22.13;;
4210;SDS011;2119;48.828;12.396;2023-03-01T06:55:45;39.27;;;20.70;;
4210;SDS011;2119;48.828;12.396;2023-03-01T07:00:45;38.53;;;22.13;;
4210;SDS011;2119;48.828;12.396;2023-03-01T07:05:49;41.67;;;22.50;;
4210;SDS011;2119;48.828;12.396;2023-03-01T08:19:56;42.47;;;21.80;;
4210;SDS011;2119;48.828;12.396;2023-03-01T08:24:57;34.17;;;18.95;;
4210;SDS011;2119;48.828;12.396;2023-03-01T08:29:57;28.23;;;16.00;;
4210;SDS011;2119;48.828;12.396;2023-03-01T08:34:57;27.85;;;15.60;;
4210;SDS011;2119;48.828;12.396;2023-03-01T08:39:58;31.75;;;16.10;;
4210;SDS011;2119;48.828;12.396;2023-03-01T08:44:58;33.77;;;17.77;;
4210;SDS011;2119;48.828;12.396;2023-03-01T08:49:59;28.77;;;16.77;;
4210;SDS011;2119;48.828;12.396;2023-03-01T08:54:59;36.73;;;17.80;;
4210;SDS011;2119;48.828;12.396;2023-03-01T09:00:01;29.63;;;16.20;;
4210;SDS011;2119;48.828;12.396;2023-03-01T09:05:03;31.43;;;14.03;;
4210;SDS011;2119;48.828;12.396;2023-03-01T09:10:03;26.13;;;15.77;;
4210;SDS011;2119;48.828;12.396;2023-03-01T09:15:03;28.90;;;15.20;;
4210;SDS011;2119;48.828;12.396;2023-03-01T09:20:04;31.03;;;14.00;;
4210;SDS011;2119;48.828;12.396;2023-03-01T09:25:05;27.13;;;15.13;;
4210;SDS011;2119;48.828;12.396;2023-03-01T09:30:06;24.27;;;14.00;;
4210;SDS011;2119;48.828;12.396;2023-03-01T09:35:07;23.83;;;14.27;;
4210;SDS011;2119;48.828;12.396;2023-03-01T09:40:09;24.50;;;13.50;;
4210;SDS011;2119;48.828;12.396;2023-03-01T09:45:37;23.37;;;14.20;;
4210;SDS011;2119;48.828;12.396;2023-03-01T09:50:36;23.67;;;13.77;;
4210;SDS011;2119;48.828;12.396;2023-03-01T10:00:42;26.65;;;14.52;;
4210;SDS011;2119;48.828;12.396;2023-03-01T10:10:43;22.83;;;12.90;;
4210;SDS011;2119;48.828;12.396;2023-03-01T10:15:47;23.10;;;13.73;;
4210;SDS011;2119;48.828;12.396;2023-03-01T10:20:52;20.67;;;13.20;;
4210;SDS011;2119;48.828;12.396;2023-03-01T10:31:04;23.03;;;13.37;;
4210;SDS011;2119;48.828;12.396;2023-03-01T10:36:04;22.73;;;13.10;;
4210;SDS011;2119;48.828;12.396;2023-03-01T10:41:05;20.07;;;12.77;;
4210;SDS011;2119;48.828;12.396;2023-03-01T10:46:21;19.83;;;12.47;;
4210;SDS011;2119;48.828;12.396;2023-03-01T10:51:22;20.27;;;14.03;;
4210;SDS011;2119;48.828;12.396;2023-03-01T10:56:22;22.92;;;13.60;;
4210;SDS011;2119;48.828;12.396;2023-03-01T11:06:35;18.10;;;11.80;;
4210;SDS011;2119;48.828;12.396;2023-03-01T11:11:37;20.47;;;12.17;;
4210;SDS011;2119;48.828;12.396;2023-03-01T11:16:39;21.20;;;12.83;;
4210;SDS011;2119;48.828;12.396;2023-03-01T11:27:04;22.53;;;12.50;;
4210;SDS011;2119;48.828;12.396;2023-03-01T11:32:06;19.30;;;12.97;;
4210;SDS011;2119;48.828;12.396;2023-03-01T11:37:16;21.33;;;13.17;;
4210;SDS011;2119;48.828;12.396;2023-03-01T11:42:34;21.60;;;13.03;;
4210;SDS011;2119;48.828;12.396;2023-03-01T11:58:17;22.60;;;12.33;;
4210;SDS011;2119;48.828;12.396;2023-03-01T12:03:25;23.77;;;11.73;;
4210;SDS011;2119;48.828;12.396;2023-03-01T12:50:29;21.17;;;10.30;;
4210;SDS011;2119;48.828;12.396;2023-03-01T12:55:35;16.67;;;11.30;;
4210;SDS011;2119;48.828;12.396;2023-03-01T13:06:15;15.60;;;11.10;;
4210;SDS011;2119;48.828;12.396;2023-03-01T13:11:20;15.97;;;11.20;;
4210;SDS011;2119;48.828;12.396;2023-03-01T13:21:31;16.60;;;10.87;;
4210;SDS011;2119;48.828;12.396;2023-03-01T13:26:33;18.80;;;12.30;;
4210;SDS011;2119;48.828;12.396;2023-03-01T13:53:22;19.63;;;12.80;;
4210;SDS011;2119;48.828;12.396;2023-03-01T13:58:28;17.43;;;13.07;;
4210;SDS011;2119;48.828;12.396;2023-03-01T14:03:40;21.10;;;14.90;;
4210;SDS011;2119;48.828;12.396;2023-03-01T14:08:42;21.27;;;14.20;;
4210;SDS011;2119;48.828;12.396;2023-03-01T14:24:18;23.20;;;14.50;;
4210;SDS011;2119;48.828;12.396;2023-03-01T14:29:37;23.40;;;14.80;;
4210;SDS011;2119;48.828;12.396;2023-03-01T14:34:44;24.87;;;15.60;;
4210;SDS011;2119;48.828;12.396;2023-03-01T14:39:45;20.20;;;14.53;;
4210;SDS011;2119;48.828;12.396;2023-03-01T14:44:49;24.50;;;15.77;;
4210;SDS011;2119;48.828;12.396;2023-03-01T14:50:34;23.77;;;15.20;;
4210;SDS011;2119;48.828;12.396;2023-03-01T14:55:50;27.80;;;16.40;;
4210;SDS011;2119;48.828;12.396;2023-03-01T15:00:55;21.13;;;14.10;;
4210;SDS011;2119;48.828;12.396;2023-03-01T15:05:56;21.97;;;14.47;;
4210;SDS011;2119;48.828;12.396;2023-03-01T15:16:11;21.93;;;15.47;;
4210;SDS011;2119;48.828;12.396;2023-03-01T15:26:23;23.00;;;15.00;;
4210;SDS011;2119;48.828;12.396;2023-03-01T15:31:28;23.77;;;15.00;;
4210;SDS011;2119;48.828;12.396;2023-03-01T15:36:30;20.63;;;14.60;;
4210;SDS011;2119;48.828;12.396;2023-03-01T15:41:31;23.73;;;15.53;;
4210;SDS011;2119;48.828;12.396;2023-03-01T15:46:50;20.57;;;14.80;;
4210;SDS011;2119;48.828;12.396;2023-03-01T15:51:51;22.00;;;16.33;;
4210;SDS011;2119;48.828;12.396;2023-03-01T16:02:33;20.60;;;13.80;;
4210;SDS011;2119;48.828;12.396;2023-03-01T16:07:34;27.80;;;15.03;;
4210;SDS011;2119;48.828;12.396;2023-03-01T16:17:59;21.37;;;14.70;;
4210;SDS011;2119;48.828;12.396;2023-03-01T16:23:07;21.40;;;14.05;;
4210;SDS011;2119;48.828;12.396;2023-03-01T16:28:15;20.47;;;15.53;;
4210;SDS011;2119;48.828;12.396;2023-03-01T16:33:20;19.23;;;14.83;;
4210;SDS011;2119;48.828;12.396;2023-03-01T16:38:22;18.57;;;13.90;;
4210;SDS011;2119;48.828;12.396;2023-03-01T16:43:24;21.40;;;14.90;;
4210;SDS011;2119;48.828;12.396;2023-03-01T16:48:38;41.90;;;28.53;;
4210;SDS011;2119;48.828;12.396;2023-03-01T16:53:39;35.67;;;25.17;;
4210;SDS011;2119;48.828;12.396;2023-03-01T16:58:40;24.80;;;15.77;;
4210;SDS011;2119;48.828;12.396;2023-03-01T17:09:16;21.50;;;14.50;;
4210;SDS011;2119;48.828;12.396;2023-03-01T17:14:23;23.03;;;14.40;;
4210;SDS011;2119;48.828;12.396;2023-03-01T17:19:23;23.53;;;16.80;;
4210;SDS011;2119;48.828;12.396;2023-03-01T17:24:38;21.83;;;16.27;;
4210;SDS011;2119;48.828;12.396;2023-03-01T17:35:03;24.20;;;16.03;;
4210;SDS011;2119;48.828;12.396;2023-03-01T17:45:12;21.37;;;14.50;;
4210;SDS011;2119;48.828;12.396;2023-03-01T17:50:15;23.90;;;15.97;;
4210;SDS011;2119;48.828;12.396;2023-03-01T18:00:47;25.70;;;16.17;;
4210;SDS011;2119;48.828;12.396;2023-03-01T18:05:49;24.00;;;14.67;;
4210;SDS011;2119;48.828;12.396;2023-03-01T18:11:01;29.63;;;15.27;;
4210;SDS011;2119;48.828;12.396;2023-03-01T18:16:11;19.43;;;14.40;;
4210;SDS011;2119;48.828;12.396;2023-03-01T18:21:18;22.23;;;14.57;;
4210;SDS011;2119;48.828;12.396;2023-03-01T18:26:21;23.30;;;16.60;;
4210;SDS011;2119;48.828;12.396;2023-03-01T18:31:26;26.40;;;16.50;;
4210;SDS011;2119;48.828;12.396;2023-03-01T18:36:37;24.20;;;15.07;;
4210;SDS011;2119;48.828;12.396;2023-03-01T18:47:08;21.53;;;15.07;;
4210;SDS011;2119;48.828;12.396;2023-03-01T18:52:12;21.33;;;14.23;;
4210;SDS011;2119;48.828;12.396;2023-03-01T18:57:13;22.70;;;15.07;;
4210;SDS011;2119;48.828;12.396;2023-03-01T19:02:19;23.17;;;14.43;;
4210;SDS011;2119;48.828;12.396;2023-03-01T19:07:22;21.50;;;14.80;;
4210;SDS011;2119;48.828;12.396;2023-03-01T19:12:22;26.00;;;16.00;;
4210;SDS011;2119;48.828;12.396;2023-03-01T19:17:23;27.13;;;15.63;;
4210;SDS011;2119;48.828;12.396;2023-03-01T19:22:29;27.53;;;17.23;;
4210;SDS011;2119;48.828;12.396;2023-03-01T19:27:34;28.27;;;16.85;;
4210;SDS011;2119;48.828;12.396;2023-03-01T19:32:34;27.57;;;16.47;;
4210;SDS011;2119;48.828;12.396;2023-03-01T19:37:35;29.07;;;17.20;;
4210;SDS011;2119;48.828;12.396;2023-03-01T19:42:35;24.10;;;16.42;;
4210;SDS011;2119;48.828;12.396;2023-03-01T19:47:35;24.27;;;15.95;;
4210;SDS011;2119;48.828;12.396;2023-03-01T19:52:36;20.77;;;14.18;;
4210;SDS011;2119;48.828;12.396;2023-03-01T20:13:22;36.13;;;18.50;;
4210;SDS011;2119;48.828;12.396;2023-03-01T20:23:28;26.00;;;16.17;;
4210;SDS011;2119;48.828;12.396;2023-03-01T20:33:53;24.43;;;15.80;;
4210;SDS011;2119;48.828;12.396;2023-03-01T20:38:55;23.80;;;15.30;;
4210;SDS011;2119;48.828;12.396;2023-03-01T20:44:08;27.83;;;15.60;;
4210;SDS011;2119;48.828;12.396;2023-03-01T20:49:22;23.77;;;14.47;;
4210;SDS011;2119;48.828;12.396;2023-03-01T21:04:56;24.37;;;14.97;;
4210;SDS011;2119;48.828;12.396;2023-03-01T21:10:10;34.27;;;17.40;;
4210;SDS011;2119;48.828;12.396;2023-03-01T21:20:22;27.03;;;16.10;;
4210;SDS011;2119;48.828;12.396;2023-03-01T21:25:22;26.30;;;16.00;;
4210;SDS011;2119;48.828;12.396;2023-03-01T21:30:22;26.00;;;15.30;;
4210;SDS011;2119;48.828;12.396;2023-03-01T21:35:26;33.05;;;15.98;;
4210;SDS011;2119;48.828;12.396;2023-03-01T21:40:26;37.00;;;22.57;;
4210;SDS011;2119;48.828;12.396;2023-03-01T21:45:26;36.20;;;20.60;;
4210;SDS011;2119;48.828;12.396;2023-03-01T21:50:26;30.20;;;18.52;;
4210;SDS011;2119;48.828;12.396;2023-03-01T21:55:27;39.83;;;23.27;;
4210;SDS011;2119;48.828;12.396;2023-03-01T22:00:27;27.35;;;15.63;;
4210;SDS011;2119;48.828;12.396;2023-03-01T22:05:31;27.10;;;14.85;;
4210;SDS011;2119;48.828;12.396;2023-03-01T22:10:31;24.03;;;14.90;;
4210;SDS011;2119;48.828;12.396;2023-03-01T22:15:32;21.97;;;13.80;;
4210;SDS011;2119;48.828;12.396;2023-03-01T22:20:32;23.57;;;13.37;;
4210;SDS011;2119;48.828;12.396;2023-03-01T22:25:38;28.00;;;16.17;;
4210;SDS011;2119;48.828;12.396;2023-03-01T22:30:39;26.97;;;15.17;;
4210;SDS011;2119;48.828;12.396;2023-03-01T22:35:40;25.73;;;15.70;;
4210;SDS011;2119;48.828;12.396;2023-03-01T22:40:41;25.57;;;14.30;;
4210;SDS011;2119;48.828;12.396;2023-03-01T22:45:44;28.65;;;15.13;;
4210;SDS011;2119;48.828;12.396;2023-03-01T22:50:44;30.53;;;16.60;;
4210;SDS011;2119;48.828;12.396;2023-03-01T22:55:45;32.63;;;17.50;;
4210;SDS011;2119;48.828;12.396;2023-03-01T23:00:45;28.20;;;14.80;;
4210;SDS011;2119;48.828;12.396;2023-03-01T23:05:46;26.20;;;12.97;;
4210;SDS011;2119;48.828;12.396;2023-03-01T23:10:46;23.67;;;12.83;;
4210;SDS011;2119;48.828;12.396;2023-03-01T23:15:51;23.67;;;12.80;;
4210;SDS011;2119;48.828;12.396;2023-03-01T23:20:51;20.50;;;12.87;;
4210;SDS011;2119;48.828;12.396;2023-03-01T23:25:55;23.87;;;13.30;;
4210;SDS011;2119;48.828;12.396;2023-03-01T23:31:00;27.63;;;12.83;;
4210;SDS011;2119;48.828;12.396;2023-03-01T23:36:00;26.93;;;14.90;;
4210;SDS011;2119;48.828;12.396;2023-03-01T23:41:01;21.77;;;13.63;;
4210;SDS011;2119;48.828;12.396;2023-03-01T23:46:02;24.93;;;14.70;;
4210;SDS011;2119;48.828;12.396;2023-03-01T23:51:03;32.00;;;17.90;;
4210;SDS011;2119;48.828;12.396;2023-03-01T23:56:03;27.67;;;16.87;;
